Etusivu
METAR-TAF:

METAR-TAF

Lentoasemat :

Tacoma Narrows Airport

Tacoma, Washington, Yhdysvallat

Leveyspiiri: 47-16-03N, Pituuspiiri: 122-34-34W, korkeus merenpinnasta: 96 m

Tämänhetkinen sää

Tämä raportti tehtiin 21 minuuttia sitten, kello 06.53 UTC
tyyntä
Lämpötila 4°C
Kosteus 93%
Ilmanpaine 1021 hPa
Näkyvyys: 16.1 km
selkeää

METAR: KTIW 010653Z AUTO 00000KT 10SM CLR 04/03 A3014 RMK AO2 SLP208 T00440033

Aika: 23:14 (07:14 UTC)


TAF: puuttuu

Säähavainnot ja -ennusteet yli 4000 lentoasemalta (METAR- ja TAF-raportit).

Käytössä olevat sääasemat on merkitty karttaan keltaisilla ja punaisilla pisteillä.

Aseta hiiri pisteen päälle nähdäksesi sääaseman nimen.

Klikkaa sitten nähdäksesi säähavainnot ja -ennusteet.

Kartan vaihtaminen: klikkaa mustalla rastilla varustettuja vihreitä pisteitä, niin voit zoomata sisään; viivalla varustettua vihreää pistettä, niin voit zoomata ulos tai vihreitä nuolia, niin pääset viereisille kartoille.


METAR-TAF: